createdAt,value
2022-11-15T00:00:56.396Z,26.27
2022-11-15T00:03:25.206Z,26.40
2022-11-15T00:05:52.237Z,50.80
2022-11-15T00:08:19.347Z,24.20
2022-11-15T00:11:02.432Z,29.08
2022-11-15T00:13:30.551Z,28.25
2022-11-15T00:15:59.573Z,29.10
2022-11-15T00:18:26.564Z,25.38
2022-11-15T00:20:53.399Z,29.98
2022-11-15T00:23:20.297Z,26.83
2022-11-15T00:25:46.940Z,25.10
2022-11-15T00:28:13.529Z,24.60
2022-11-15T00:30:40.167Z,32.42
2022-11-15T00:33:07.549Z,27.27
2022-11-15T00:35:35.464Z,33.83
2022-11-15T00:38:02.838Z,37.45
2022-11-15T00:40:29.847Z,33.08
2022-11-15T00:42:56.762Z,29.52
2022-11-15T00:45:24.430Z,29.38
2022-11-15T00:47:51.561Z,31.38
2022-11-15T00:50:18.610Z,31.85
2022-11-15T00:52:45.539Z,27.95
2022-11-15T00:55:17.209Z,29.92
2022-11-15T00:57:44.666Z,25.48
2022-11-15T01:00:11.937Z,24.30
2022-11-15T01:02:41.751Z,21.00
2022-11-15T01:05:09.069Z,25.55
2022-11-15T01:07:35.798Z,29.08
2022-11-15T01:10:02.461Z,29.90
2022-11-15T01:12:29.129Z,32.15
2022-11-15T01:14:55.753Z,31.27
2022-11-15T01:17:22.504Z,27.65
2022-11-15T01:19:49.177Z,27.08
2022-11-15T01:22:16.126Z,25.58
2022-11-15T01:24:42.706Z,22.33
2022-11-15T01:27:13.052Z,28.17
2022-11-15T01:29:39.691Z,31.20
2022-11-15T01:32:06.431Z,29.52
2022-11-15T01:34:33.508Z,27.05
2022-11-15T01:37:00.239Z,20.55
2022-11-15T01:39:27.631Z,26.27
2022-11-15T01:41:54.654Z,28.65
2022-11-15T01:44:36.472Z,32.45
2022-11-15T01:47:07.571Z,32.30
2022-11-15T01:49:38.783Z,25.02
2022-11-15T01:52:09.895Z,29.30
2022-11-15T01:54:36.793Z,28.17
2022-11-15T01:57:09.031Z,27.50
2022-11-15T01:59:37.901Z,25.75
2022-11-15T02:02:04.509Z,22.50
2022-11-15T02:04:38.937Z,27.52
2022-11-15T02:07:07.620Z,30.50
2022-11-15T02:09:34.312Z,29.30
2022-11-15T02:12:01.124Z,22.92
2022-11-15T02:14:29.626Z,28.90
2022-11-15T02:17:28.164Z,25.10
2022-11-15T02:20:11.869Z,21.10
2022-11-15T02:23:01.649Z,23.90
2022-11-15T02:25:56.494Z,21.15
2022-11-15T02:28:43.988Z,21.38
2022-11-15T02:31:25.821Z,20.48
2022-11-15T02:34:06.004Z,24.00
2022-11-15T02:36:55.384Z,24.25
2022-11-15T02:39:42.209Z,25.38
2022-11-15T02:42:32.416Z,21.48
2022-11-15T02:45:04.844Z,19.42
2022-11-15T02:47:38.922Z,24.42
2022-11-15T02:50:10.881Z,29.52
2022-11-15T02:52:37.513Z,24.70
2022-11-15T02:55:04.715Z,26.35
2022-11-15T02:57:46.536Z,22.63
2022-11-15T03:00:17.516Z,24.40
2022-11-15T03:03:13.708Z,25.15
2022-11-15T03:06:03.803Z,24.33
2022-11-15T03:08:36.982Z,22.55
2022-11-15T03:11:09.075Z,23.08
2022-11-15T03:13:51.980Z,25.27
2022-11-15T03:16:28.670Z,25.55
2022-11-15T03:19:04.372Z,22.98
2022-11-15T03:21:34.064Z,23.30
2022-11-15T03:24:05.035Z,25.10
2022-11-15T03:26:34.060Z,26.08
2022-11-15T03:29:07.621Z,24.13
2022-11-15T03:31:54.643Z,20.15
2022-11-15T03:34:33.288Z,21.40
2022-11-15T03:37:00.132Z,25.52
2022-11-15T03:39:27.475Z,27.60
2022-11-15T03:41:58.676Z,24.73
2022-11-15T03:44:34.133Z,28.27
2022-11-15T03:47:24.833Z,23.90
2022-11-15T03:49:54.724Z,22.60
2022-11-15T03:52:22.804Z,28.63
2022-11-15T03:54:53.546Z,25.10
2022-11-15T03:57:20.337Z,28.55
2022-11-15T03:59:47.009Z,29.40
2022-11-15T04:02:13.717Z,30.30
2022-11-15T04:04:41.033Z,27.92
2022-11-15T04:07:07.725Z,25.52
2022-11-15T04:09:34.773Z,25.30
2022-11-15T04:12:01.409Z,26.55
2022-11-15T04:14:28.086Z,25.35
2022-11-15T04:16:54.688Z,24.77
2022-11-15T04:19:36.497Z,28.90
2022-11-15T04:22:18.294Z,31.40
2022-11-15T04:24:44.886Z,27.13
2022-11-15T04:27:13.770Z,26.23
2022-11-15T04:29:40.494Z,27.52
2022-11-15T04:32:08.301Z,25.40
2022-11-15T04:34:35.342Z,30.90
2022-11-15T04:37:17.329Z,23.52
2022-11-15T04:39:44.472Z,25.27
2022-11-15T04:42:11.908Z,30.98
2022-11-15T04:44:38.518Z,25.20
2022-11-15T04:47:05.494Z,29.52
2022-11-15T04:49:32.300Z,26.80
2022-11-15T04:51:58.980Z,30.35
2022-11-15T04:54:25.702Z,25.80
2022-11-15T04:56:52.391Z,26.63
2022-11-15T04:59:19.028Z,21.35
2022-11-15T05:01:45.776Z,24.60
2022-11-15T05:04:22.814Z,22.40
2022-11-15T05:06:51.512Z,23.58
2022-11-15T05:09:19.567Z,25.20
2022-11-15T05:11:46.631Z,27.13
2022-11-15T05:14:14.033Z,22.80
2022-11-15T05:16:40.797Z,28.08
2022-11-15T05:19:07.774Z,29.77
2022-11-15T05:21:35.169Z,30.88
2022-11-15T05:24:02.362Z,38.15
2022-11-15T05:26:29.089Z,35.97
2022-11-15T05:29:01.205Z,32.00
2022-11-15T05:31:31.869Z,29.58
2022-11-15T05:34:01.028Z,33.05
2022-11-15T05:36:32.196Z,30.27
2022-11-15T05:38:58.880Z,42.60
2022-11-15T05:41:32.256Z,50.03
2022-11-15T05:43:59.700Z,39.03
2022-11-15T05:46:26.759Z,42.00
2022-11-15T05:48:54.695Z,37.58
2022-11-15T05:51:23.343Z,42.58
2022-11-15T05:53:52.433Z,42.83
2022-11-15T05:56:19.063Z,42.88
2022-11-15T05:58:45.775Z,35.92
2022-11-15T06:01:12.567Z,42.22
2022-11-15T06:03:39.174Z,39.53
2022-11-15T06:06:06.234Z,33.90
2022-11-15T06:08:32.873Z,39.83
2022-11-15T06:11:06.113Z,38.35
2022-11-15T06:13:33.913Z,34.17
2022-11-15T06:16:02.528Z,41.10
2022-11-15T06:18:29.377Z,36.92
2022-11-15T06:20:59.870Z,39.00
2022-11-15T06:23:26.884Z,41.65
2022-11-15T06:25:53.464Z,47.60
2022-11-15T06:28:20.215Z,51.50
2022-11-15T06:30:52.041Z,39.55
2022-11-15T06:33:20.090Z,30.10
2022-11-15T06:35:46.752Z,33.15
2022-11-15T06:38:13.439Z,37.70
2022-11-15T06:40:40.733Z,39.42
2022-11-15T06:43:07.463Z,34.88
2022-11-15T06:45:34.062Z,39.88
2022-11-15T06:48:00.675Z,37.78
2022-11-15T06:50:27.337Z,35.33
2022-11-15T06:52:53.960Z,44.78
2022-11-15T06:55:20.588Z,43.38
2022-11-15T06:57:49.093Z,54.75
2022-11-15T07:00:16.934Z,62.70
2022-11-15T07:02:43.710Z,53.88
2022-11-15T07:05:10.494Z,54.70
2022-11-15T07:07:37.263Z,47.42
2022-11-15T07:10:04.228Z,56.25
2022-11-15T07:12:30.777Z,56.00
2022-11-15T07:14:57.372Z,53.38
2022-11-15T07:17:23.965Z,62.63
2022-11-15T07:19:50.598Z,76.65
2022-11-15T07:22:17.194Z,88.97
2022-11-15T07:24:43.754Z,79.10
2022-11-15T07:27:10.471Z,84.65
2022-11-15T07:29:37.159Z,84.35
2022-11-15T07:32:03.905Z,93.65
2022-11-15T07:34:30.633Z,77.97
2022-11-15T07:36:57.453Z,92.22
2022-11-15T07:39:24.154Z,187.77
2022-11-15T07:42:10.690Z,129.05
2022-11-15T07:44:37.289Z,74.72
2022-11-15T07:47:03.914Z,79.30
2022-11-15T07:49:30.511Z,123.38
2022-11-15T07:51:57.206Z,113.22
2022-11-15T07:54:23.778Z,146.50
2022-11-15T07:56:50.362Z,131.15
2022-11-15T07:59:17.066Z,133.60
2022-11-15T08:01:43.798Z,92.85
2022-11-15T08:04:12.120Z,122.32
2022-11-15T08:06:39.017Z,117.53
2022-11-15T08:09:05.890Z,140.48
2022-11-15T08:11:32.523Z,136.25
2022-11-15T08:13:59.661Z,147.52
2022-11-15T08:16:26.205Z,109.75
2022-11-15T08:18:52.777Z,128.57
2022-11-15T08:21:21.338Z,105.43
2022-11-15T08:23:48.174Z,143.40
2022-11-15T08:26:15.577Z,99.75
2022-11-15T08:28:42.631Z,96.00
2022-11-15T08:31:16.157Z,112.57
2022-11-15T08:33:43.009Z,111.85
2022-11-15T08:36:14.553Z,158.75
2022-11-15T08:38:41.891Z,119.18
2022-11-15T08:41:14.717Z,142.35
2022-11-15T08:43:41.334Z,115.32
2022-11-15T08:46:12.843Z,147.57
2022-11-15T08:48:39.494Z,128.95
2022-11-15T08:51:06.633Z,132.07
2022-11-15T08:53:33.250Z,144.25
2022-11-15T08:55:59.840Z,137.68
2022-11-15T08:58:26.646Z,132.55
2022-11-15T09:00:53.443Z,115.03
2022-11-15T09:03:20.059Z,137.38
2022-11-15T09:05:50.070Z,111.47
2022-11-15T09:08:56.849Z,99.43
2022-11-15T09:11:05.843Z,99.38
2022-11-15T09:13:32.470Z,111.65
2022-11-15T09:16:01.428Z,144.80
2022-11-15T09:18:28.522Z,101.80
2022-11-15T09:20:58.026Z,112.78
2022-11-15T09:23:25.204Z,99.95
2022-11-15T09:25:52.917Z,103.07
2022-11-15T09:28:19.568Z,102.30
2022-11-15T09:30:46.161Z,107.88
2022-11-15T09:33:16.758Z,105.25
2022-11-15T09:35:43.427Z,113.43
2022-11-15T09:38:10.147Z,110.60
2022-11-15T09:40:38.979Z,111.32
2022-11-15T09:43:21.106Z,102.13
2022-11-15T09:46:02.331Z,91.25
2022-11-15T09:49:00.126Z,88.38
2022-11-15T09:51:35.115Z,92.28
2022-11-15T09:57:18.068Z,100.32
2022-11-15T10:00:23.728Z,110.60
2022-11-15T10:03:14.311Z,108.03
2022-11-15T10:05:42.977Z,90.15
2022-11-15T10:08:19.281Z,115.13
2022-11-15T10:10:49.231Z,115.28
2022-11-15T10:13:26.826Z,120.72
2022-11-15T10:16:00.627Z,122.25
2022-11-15T10:18:43.462Z,115.32
2022-11-15T10:21:18.904Z,120.47
2022-11-15T10:23:45.568Z,133.00
2022-11-15T10:26:16.542Z,137.38
2022-11-15T10:28:43.500Z,126.00
2022-11-15T10:31:23.329Z,136.13
2022-11-15T10:33:50.763Z,134.07
2022-11-15T10:36:20.247Z,129.25
2022-11-15T10:38:55.569Z,136.98
2022-11-15T10:41:32.391Z,118.78
2022-11-15T10:44:22.923Z,123.88
2022-11-15T10:47:06.798Z,124.78
2022-11-15T10:49:35.583Z,145.88
2022-11-15T10:52:05.454Z,135.18
2022-11-15T10:54:43.261Z,134.52
2022-11-15T10:57:20.331Z,132.90
2022-11-15T10:59:50.645Z,130.55
2022-11-15T11:02:33.637Z,137.05
2022-11-15T11:05:01.576Z,131.15
2022-11-15T11:07:31.038Z,117.80
2022-11-15T11:10:02.357Z,120.22
2022-11-15T11:12:32.485Z,101.22
2022-11-15T11:15:01.847Z,98.15
2022-11-15T11:17:52.474Z,119.80
2022-11-15T11:20:23.659Z,111.13
2022-11-15T11:23:25.499Z,107.82
2022-11-15T11:25:59.774Z,105.85
2022-11-15T11:28:41.801Z,96.35
2022-11-15T11:31:09.371Z,90.40
2022-11-15T11:33:58.914Z,100.97
2022-11-15T11:36:40.910Z,103.95
2022-11-15T11:39:35.765Z,113.47
2022-11-15T11:42:14.438Z,89.82
2022-11-15T11:45:16.646Z,97.43
2022-11-15T11:47:52.616Z,108.30
2022-11-15T11:50:22.478Z,99.72
2022-11-15T11:53:11.108Z,125.60
2022-11-15T11:55:49.215Z,113.53
2022-11-15T11:58:20.747Z,103.30
2022-11-15T12:00:54.510Z,118.20
2022-11-15T12:03:30.245Z,91.68
2022-11-15T12:06:01.089Z,94.00
2022-11-15T12:08:48.279Z,81.45
2022-11-15T12:11:20.503Z,82.10
2022-11-15T12:13:51.828Z,71.25
2022-11-15T12:16:28.487Z,75.75
2022-11-15T12:19:00.749Z,79.45
2022-11-15T12:21:28.645Z,79.90
2022-11-15T12:24:05.249Z,80.82
2022-11-15T12:29:10.660Z,71.07
2022-11-15T12:31:43.036Z,68.65
2022-11-15T12:34:43.107Z,75.43
2022-11-15T12:37:41.506Z,69.95
2022-11-15T12:40:23.687Z,71.53
2022-11-15T12:43:19.169Z,73.65
2022-11-15T12:45:46.851Z,67.60
2022-11-15T12:48:53.347Z,66.28
2022-11-15T12:51:41.861Z,54.55
2022-11-15T12:54:23.744Z,62.42
2022-11-15T12:57:30.134Z,63.05
2022-11-15T12:59:59.770Z,59.33
2022-11-15T13:02:30.296Z,59.90
2022-11-15T13:05:19.790Z,57.78
2022-11-15T13:07:49.549Z,64.50
2022-11-15T13:10:17.116Z,61.72
2022-11-15T13:12:43.693Z,61.85
2022-11-15T13:15:31.189Z,60.95
2022-11-15T13:17:58.234Z,63.67
2022-11-15T13:20:31.012Z,60.53
2022-11-15T13:23:03.217Z,61.05
2022-11-15T13:25:55.550Z,59.88
2022-11-15T13:28:28.889Z,63.28
2022-11-15T13:30:59.028Z,53.42
2022-11-15T13:33:37.247Z,60.47
2022-11-15T13:36:10.022Z,61.58
2022-11-15T13:38:39.601Z,64.85
2022-11-15T13:41:22.455Z,60.70
2022-11-15T13:43:51.186Z,64.88
2022-11-15T13:46:20.348Z,60.50
2022-11-15T13:48:52.108Z,70.20
2022-11-15T13:51:31.436Z,61.20
2022-11-15T13:54:20.592Z,84.68
2022-11-15T13:56:56.706Z,76.72
2022-11-15T13:59:28.209Z,79.03
2022-11-15T14:01:57.553Z,74.80
2022-11-15T14:04:27.227Z,76.63
2022-11-15T14:06:57.039Z,85.15
2022-11-15T14:09:23.744Z,94.85
2022-11-15T14:11:52.740Z,70.13
2022-11-15T14:14:22.309Z,75.38
2022-11-15T14:16:53.334Z,66.18
2022-11-15T14:19:21.117Z,62.75
2022-11-15T14:22:18.239Z,65.72
2022-11-15T14:24:47.171Z,70.20
2022-11-15T14:27:27.031Z,76.47
2022-11-15T14:29:54.342Z,65.22
2022-11-15T14:32:30.772Z,79.07
2022-11-15T14:34:59.232Z,62.92
2022-11-15T14:37:29.526Z,57.67
2022-11-15T14:39:56.705Z,56.00
2022-11-15T14:42:24.475Z,54.30
2022-11-15T14:44:51.544Z,62.22
2022-11-15T14:47:18.538Z,60.83
2022-11-15T14:49:45.570Z,49.85
2022-11-15T14:52:32.279Z,62.95
2022-11-15T14:55:00.315Z,72.85
2022-11-15T14:57:26.923Z,63.22
2022-11-15T14:59:53.652Z,62.78
2022-11-15T15:02:23.834Z,63.95
2022-11-15T15:04:51.267Z,60.15
2022-11-15T15:07:18.616Z,59.50
2022-11-15T15:09:46.164Z,58.13
2022-11-15T15:12:18.841Z,61.40
2022-11-15T15:14:47.132Z,75.00
2022-11-15T15:17:13.900Z,97.30
2022-11-15T15:19:40.727Z,109.13
2022-11-15T15:22:10.804Z,115.07
2022-11-15T15:24:38.054Z,68.05
2022-11-15T15:27:04.694Z,57.88
2022-11-15T15:29:31.359Z,51.67
2022-11-15T15:31:57.979Z,46.97
2022-11-15T15:34:24.603Z,47.42
2022-11-15T15:37:08.111Z,56.38
2022-11-15T15:39:34.731Z,43.88
2022-11-15T15:42:01.466Z,47.75
2022-11-15T15:44:28.040Z,44.75
2022-11-15T15:46:54.618Z,46.38
2022-11-15T15:49:21.192Z,35.88
2022-11-15T15:51:47.738Z,38.10
2022-11-15T15:54:14.306Z,39.45
2022-11-15T15:56:40.892Z,37.58
2022-11-15T15:59:07.495Z,39.65
2022-11-15T16:01:34.129Z,38.22
2022-11-15T16:04:00.745Z,39.88
2022-11-15T16:06:36.682Z,39.00
2022-11-15T16:09:20.216Z,36.97
2022-11-15T16:11:48.065Z,35.28
2022-11-15T16:14:14.699Z,37.72
2022-11-15T16:16:41.414Z,39.60
2022-11-15T16:19:11.436Z,41.58
2022-11-15T16:21:38.070Z,43.25
2022-11-15T16:24:05.523Z,37.50
2022-11-15T16:26:33.819Z,42.22
2022-11-15T16:29:00.416Z,40.88
2022-11-15T16:31:26.952Z,39.08
2022-11-15T16:33:53.679Z,43.08
2022-11-15T16:36:26.975Z,37.80
2022-11-15T16:38:56.439Z,44.03
2022-11-15T16:41:23.067Z,41.95
2022-11-15T16:43:49.875Z,46.55
2022-11-15T16:46:23.060Z,41.13
2022-11-15T16:48:50.446Z,43.13
2022-11-15T16:51:17.566Z,42.28
2022-11-15T16:53:44.731Z,37.33
2022-11-15T16:56:27.939Z,37.47
2022-11-15T16:58:58.520Z,39.38
2022-11-15T17:01:29.428Z,46.58
2022-11-15T17:03:56.667Z,44.25
2022-11-15T17:06:24.640Z,45.45
2022-11-15T17:08:54.702Z,40.38
2022-11-15T17:11:22.907Z,37.30
2022-11-15T17:13:49.881Z,42.65
2022-11-15T17:16:18.528Z,35.97
2022-11-15T17:18:45.678Z,39.45
2022-11-15T17:21:16.161Z,38.58
2022-11-15T17:23:43.677Z,38.90
2022-11-15T17:26:28.826Z,39.78
2022-11-15T17:28:58.044Z,35.00
2022-11-15T17:31:25.417Z,43.45
2022-11-15T17:33:55.344Z,38.28
2022-11-15T17:36:22.820Z,41.78
2022-11-15T17:38:58.107Z,36.45
2022-11-15T17:41:26.675Z,43.33
2022-11-15T17:43:53.464Z,39.88
2022-11-15T17:46:21.395Z,39.08
2022-11-15T17:48:48.770Z,41.20
2022-11-15T17:51:17.750Z,38.65
2022-11-15T17:53:46.709Z,44.35
2022-11-15T17:56:16.225Z,48.38
2022-11-15T17:58:48.515Z,44.53
2022-11-15T18:01:31.519Z,49.58
2022-11-15T18:04:00.672Z,70.65
2022-11-15T18:06:30.812Z,73.18
2022-11-15T18:08:58.422Z,74.68
2022-11-15T18:11:28.331Z,74.32
2022-11-15T18:13:57.856Z,75.10
2022-11-15T18:16:27.874Z,71.50
2022-11-15T18:18:55.123Z,66.80
2022-11-15T18:21:23.981Z,60.95
2022-11-15T18:23:54.129Z,58.13
2022-11-15T18:26:26.650Z,59.08
2022-11-15T18:28:56.686Z,59.83
2022-11-15T18:31:27.076Z,64.95
2022-11-15T18:33:54.326Z,63.90
2022-11-15T18:36:23.406Z,61.33
2022-11-15T18:38:55.769Z,78.57
2022-11-15T18:41:25.353Z,74.13
2022-11-15T18:43:52.710Z,73.35
2022-11-15T18:46:21.141Z,70.35
2022-11-15T18:48:50.536Z,74.60
2022-11-15T18:51:19.832Z,65.60
2022-11-15T18:53:46.814Z,60.53
2022-11-15T18:56:16.616Z,62.28
2022-11-15T18:58:46.831Z,71.50
2022-11-15T19:01:18.632Z,68.45
2022-11-15T19:03:48.517Z,70.22
2022-11-15T19:06:17.323Z,64.53
2022-11-15T19:08:46.207Z,82.05
2022-11-15T19:11:13.871Z,91.32
2022-11-15T19:13:41.139Z,88.70
2022-11-15T19:16:12.770Z,73.50
2022-11-15T19:18:39.842Z,63.60
2022-11-15T19:21:12.201Z,51.05
2022-11-15T19:23:42.759Z,42.05
2022-11-15T19:26:12.902Z,44.25
2022-11-15T19:28:40.145Z,43.40
2022-11-15T19:31:10.050Z,44.47
2022-11-15T19:33:37.634Z,43.17
2022-11-15T19:36:06.775Z,41.13
2022-11-15T19:38:34.920Z,37.40
2022-11-15T19:41:05.404Z,38.42
2022-11-15T19:43:33.153Z,36.00
2022-11-15T19:46:02.802Z,43.22
2022-11-15T19:48:30.723Z,35.92
2022-11-15T19:51:02.014Z,37.45
2022-11-15T19:53:34.424Z,35.00
2022-11-15T19:56:04.744Z,38.13
2022-11-15T19:58:31.445Z,38.90
2022-11-15T20:01:07.578Z,36.33
2022-11-15T20:03:36.595Z,43.08
2022-11-15T20:06:07.074Z,40.92
2022-11-15T20:08:35.430Z,35.80
2022-11-15T20:11:04.669Z,36.83
2022-11-15T20:13:31.991Z,34.47
2022-11-15T20:15:59.388Z,33.92
2022-11-15T20:18:28.039Z,34.65
2022-11-15T20:20:56.592Z,36.45
2022-11-15T20:23:23.313Z,37.45
2022-11-15T20:25:50.144Z,38.55
2022-11-15T20:28:20.586Z,31.95
2022-11-15T20:30:47.934Z,36.53
2022-11-15T20:33:14.986Z,32.10
2022-11-15T20:35:41.666Z,37.08
2022-11-15T20:38:08.465Z,30.23
2022-11-15T20:40:35.362Z,31.60
2022-11-15T20:43:02.610Z,32.72
2022-11-15T20:45:29.565Z,32.58
2022-11-15T20:47:57.127Z,27.77
2022-11-15T20:50:41.597Z,27.70
2022-11-15T20:53:15.677Z,30.50
2022-11-15T20:55:45.135Z,31.02
2022-11-15T20:58:11.871Z,35.78
2022-11-15T21:00:38.474Z,28.15
2022-11-15T21:03:07.047Z,26.83
2022-11-15T21:05:38.083Z,30.23
2022-11-15T21:08:04.924Z,31.60
2022-11-15T21:10:50.042Z,26.98
2022-11-15T21:13:16.655Z,25.15
2022-11-15T21:15:43.256Z,27.35
2022-11-15T21:18:09.932Z,27.40
2022-11-15T21:20:36.642Z,24.40
2022-11-15T21:23:03.440Z,25.77
2022-11-15T21:25:30.025Z,24.80
2022-11-15T21:27:56.766Z,25.63
2022-11-15T21:30:23.662Z,34.00
2022-11-15T21:32:50.350Z,29.95
2022-11-15T21:35:20.273Z,25.77
2022-11-15T21:37:50.547Z,22.52
2022-11-15T21:40:20.111Z,27.65
2022-11-15T21:42:46.817Z,25.30
2022-11-15T21:45:14.647Z,21.75
2022-11-15T21:47:45.767Z,26.77
2022-11-15T21:50:13.266Z,24.23
2022-11-15T21:52:40.678Z,24.40
2022-11-15T21:55:08.221Z,24.45
2022-11-15T21:57:34.877Z,25.90
2022-11-15T22:00:16.830Z,24.98
2022-11-15T22:02:43.421Z,22.80
2022-11-15T22:05:09.989Z,27.15
2022-11-15T22:07:36.763Z,23.27
2022-11-15T22:10:03.694Z,20.90
2022-11-15T22:12:30.301Z,25.85
2022-11-15T22:14:57.222Z,22.05
2022-11-15T22:17:24.705Z,21.17
2022-11-15T22:19:52.922Z,22.30
2022-11-15T22:22:19.878Z,21.23
2022-11-15T22:24:46.510Z,17.65
2022-11-15T22:27:13.129Z,21.25
2022-11-15T22:29:39.752Z,16.15
2022-11-15T22:32:06.549Z,22.88
2022-11-15T22:34:33.208Z,20.65
2022-11-15T22:37:19.909Z,20.63
2022-11-15T22:39:46.636Z,19.42
2022-11-15T22:42:13.433Z,21.08
2022-11-15T22:44:40.053Z,21.67
2022-11-15T22:47:06.733Z,17.10
2022-11-15T22:49:33.353Z,16.83
2022-11-15T22:51:59.970Z,16.75
2022-11-15T22:54:26.548Z,33.55
2022-11-15T22:56:53.399Z,20.92
2022-11-15T22:59:20.046Z,23.58
2022-11-15T23:01:46.781Z,18.20
2022-11-15T23:04:13.383Z,19.10
2022-11-15T23:06:40.041Z,19.63
2022-11-15T23:09:06.746Z,20.92
2022-11-15T23:11:48.894Z,20.52
2022-11-15T23:14:15.493Z,23.90
2022-11-15T23:16:42.157Z,20.45
2022-11-15T23:19:11.357Z,17.20
2022-11-15T23:21:56.121Z,19.02
2022-11-15T23:24:23.715Z,23.88
2022-11-15T23:26:57.122Z,20.75
2022-11-15T23:29:25.453Z,23.60
2022-11-15T23:32:09.250Z,20.58
2022-11-15T23:34:40.156Z,18.85
2022-11-15T23:37:08.371Z,21.83
2022-11-15T23:39:35.005Z,22.92
2022-11-15T23:42:06.056Z,23.23
2022-11-15T23:44:34.261Z,19.77
2022-11-15T23:47:00.914Z,25.33
2022-11-15T23:49:28.006Z,19.02
2022-11-15T23:51:54.653Z,21.65
2022-11-15T23:54:21.269Z,25.80
2022-11-15T23:56:47.875Z,19.33
2022-11-15T23:59:14.524Z,20.75
